Time;durP1;ratioP1;P1;durP2;ratioP2;P2;SDS_P1;SDS_P2;PMS_P1;PMS_P2;Temp;Humidity;BMP_temperature;BMP_pressure;BME280_temperature;BME280_humidity;BME280_pressure;Samples;Min_cycle;Max_cycle;Signal;HPM_P1;HPM_P2
2022/12/12 00:01:47;;;;;;;21.97;13.00;;;-1.50;99.90;;;;;;5080306;28;20228;-71
2022/12/12 00:04:15;;;;;;;20.40;12.07;;;-1.60;99.90;;;;;;5077091;28;20210;-70
2022/12/12 00:06:42;;;;;;;19.83;11.60;;;-1.70;99.90;;;;;;5088565;28;20209;-70
2022/12/12 00:09:09;;;;;;;16.20;10.67;;;-1.60;99.90;;;;;;5068102;28;20296;-71
2022/12/12 00:11:36;;;;;;;17.33;11.60;;;-1.60;99.90;;;;;;5070713;28;20204;-70
2022/12/12 00:14:03;;;;;;;18.77;11.87;;;-1.60;99.90;;;;;;5068695;28;20212;-71
2022/12/12 00:16:30;;;;;;;15.17;11.47;;;-1.70;99.90;;;;;;5063509;28;20222;-70
2022/12/12 00:18:57;;;;;;;15.40;9.93;;;-1.70;99.90;;;;;;5081073;28;20197;-71
2022/12/12 00:21:28;;;;;;;15.73;9.20;;;-1.70;99.90;;;;;;5081739;28;20205;-71
2022/12/12 00:23:55;;;;;;;14.63;9.63;;;-1.70;99.90;;;;;;5073480;28;20309;-71
2022/12/12 00:26:24;;;;;;;14.53;9.67;;;-1.70;99.90;;;;;;5070709;28;20202;-70
2022/12/12 00:28:51;;;;;;;13.83;9.37;;;-1.60;99.90;;;;;;5068178;28;20205;-70
2022/12/12 00:31:18;;;;;;;17.53;9.40;;;-1.70;99.90;;;;;;5067878;28;20241;-70
2022/12/12 00:33:47;;;;;;;14.83;10.07;;;-1.70;99.90;;;;;;5077922;28;20211;-71
2022/12/12 00:36:15;;;;;;;15.40;9.07;;;-1.70;99.90;;;;;;5064090;28;20267;-70
2022/12/12 00:38:43;;;;;;;15.50;9.20;;;-1.70;99.90;;;;;;5080657;28;20201;-70
2022/12/12 00:41:10;;;;;;;15.17;9.33;;;-1.70;99.90;;;;;;5074386;28;20216;-70
2022/12/12 00:43:37;;;;;;;12.47;8.30;;;-1.70;99.90;;;;;;5068118;28;20636;-70
2022/12/12 00:46:04;;;;;;;12.60;8.60;;;-1.70;99.90;;;;;;5067983;28;20204;-69
2022/12/12 00:48:31;;;;;;;12.43;8.47;;;-1.70;99.90;;;;;;5027462;28;1154013;-70
2022/12/12 00:50:58;;;;;;;13.00;8.10;;;-1.70;99.90;;;;;;5074382;28;20204;-70
2022/12/12 00:53:25;;;;;;;13.50;7.83;;;-1.70;99.90;;;;;;5066644;28;21003;-71
2022/12/12 00:55:57;;;;;;;12.83;8.40;;;-1.70;99.90;;;;;;5077243;28;20206;-70
2022/12/12 00:58:25;;;;;;;14.37;7.70;;;-1.60;99.90;;;;;;5066165;28;20215;-70
2022/12/12 01:00:53;;;;;;;13.03;8.63;;;-1.60;99.90;;;;;;5071433;28;20731;-70
2022/12/12 01:03:20;;;;;;;12.00;7.90;;;-1.70;99.90;;;;;;5069758;28;20647;-70
2022/12/12 01:05:47;;;;;;;14.63;8.10;;;-1.60;99.90;;;;;;5059418;28;20206;-70
2022/12/12 01:08:14;;;;;;;12.87;7.97;;;-1.60;99.90;;;;;;5065145;28;20205;-70
2022/12/12 01:10:41;;;;;;;12.97;8.40;;;-1.60;99.90;;;;;;5069710;28;20209;-70
2022/12/12 01:13:09;;;;;;;13.13;8.60;;;-1.70;99.90;;;;;;5074594;28;20205;-69
2022/12/12 01:15:36;;;;;;;16.87;8.43;;;-1.70;99.90;;;;;;5073227;28;20304;-70
2022/12/12 01:18:03;;;;;;;19.90;9.97;;;-1.70;99.90;;;;;;5072313;28;20217;-70
2022/12/12 01:20:30;;;;;;;15.90;9.80;;;-1.70;99.90;;;;;;5081630;28;20298;-71
2022/12/12 01:22:57;;;;;;;12.70;8.07;;;-1.70;99.90;;;;;;5072305;28;20231;-70
2022/12/12 01:25:24;;;;;;;12.33;8.40;;;-1.70;99.90;;;;;;5068575;28;20212;-69
2022/12/12 01:27:51;;;;;;;13.27;8.60;;;-1.70;99.90;;;;;;5070675;28;20663;-70
2022/12/12 01:30:22;;;;;;;15.17;7.70;;;-1.70;99.90;;;;;;5070349;28;20677;-70
2022/12/12 01:32:49;;;;;;;13.07;7.73;;;-1.70;99.90;;;;;;5073624;28;20201;-70
2022/12/12 01:35:16;;;;;;;14.97;8.93;;;-1.70;99.90;;;;;;5079035;28;20525;-71
2022/12/12 01:37:44;;;;;;;14.17;8.43;;;-1.70;99.90;;;;;;5071308;28;20239;-69
2022/12/12 01:40:15;;;;;;;15.63;10.67;;;-1.60;99.90;;;;;;5064619;28;20272;-69
2022/12/12 01:42:43;;;;;;;14.10;9.10;;;-1.60;99.90;;;;;;5082138;28;20250;-70
2022/12/12 01:45:39;;;;;;;15.00;8.30;;;-1.60;99.90;;;;;;5072756;28;20215;-71
2022/12/12 01:48:07;;;;;;;12.17;7.80;;;-1.60;99.90;;;;;;5061748;28;20244;-71
2022/12/12 01:50:34;;;;;;;12.87;8.37;;;-1.60;99.90;;;;;;5075523;28;20369;-72
2022/12/12 01:53:01;;;;;;;13.37;8.57;;;-1.60;99.90;;;;;;5061169;28;20262;-71
2022/12/12 01:55:28;;;;;;;10.93;7.80;;;-1.60;99.90;;;;;;5062672;28;20288;-70
2022/12/12 01:57:55;;;;;;;12.70;7.90;;;-1.60;99.90;;;;;;5073674;28;20213;-71
2022/12/12 02:00:22;;;;;;;13.27;8.10;;;-1.60;99.90;;;;;;5080696;28;20677;-71
2022/12/12 02:02:51;;;;;;;12.07;7.57;;;-1.60;99.90;;;;;;5072816;28;20215;-71
2022/12/12 02:05:27;;;;;;;12.17;7.93;;;-1.60;99.90;;;;;;5072815;28;20210;-71
2022/12/12 02:07:55;;;;;;;12.70;7.60;;;-1.60;99.90;;;;;;5075648;28;20197;-69
2022/12/12 02:10:22;;;;;;;11.33;7.17;;;-1.60;99.90;;;;;;5074513;28;20197;-70
2022/12/12 02:12:48;;;;;;;13.57;7.83;;;-1.60;99.90;;;;;;5080233;28;20239;-69
2022/12/12 02:15:15;;;;;;;11.67;7.93;;;-1.60;99.90;;;;;;5073378;28;20202;-69
2022/12/12 02:17:54;;;;;;;12.33;8.00;;;-1.60;99.90;;;;;;5070890;28;20217;-71
2022/12/12 02:20:49;;;;;;;10.87;7.03;;;-1.60;99.90;;;;;;5089958;28;20247;-70
2022/12/12 02:23:45;;;;;;;10.50;7.30;;;-1.50;99.90;;;;;;5071573;28;20666;-70
2022/12/12 02:26:45;;;;;;;10.30;7.17;;;-1.50;99.90;;;;;;5069662;28;20210;-70
2022/12/12 02:30:00;;;;;;;11.13;7.07;;;-1.50;99.90;;;;;;5078492;28;20205;-70
2022/12/12 02:32:50;;;;;;;9.90;6.57;;;-1.50;99.90;;;;;;5080914;28;20205;-71
2022/12/12 02:35:22;;;;;;;10.57;6.80;;;-1.50;99.90;;;;;;5061904;28;20274;-70
2022/12/12 02:37:58;;;;;;;10.07;6.60;;;-1.50;99.90;;;;;;5075382;28;20229;-70
2022/12/12 02:40:32;;;;;;;10.73;6.30;;;-1.50;99.90;;;;;;5084504;28;20197;-71
2022/12/12 02:43:05;;;;;;;8.90;6.07;;;-1.50;99.90;;;;;;5084848;28;20286;-70
2022/12/12 02:45:37;;;;;;;11.10;6.67;;;-1.40;99.90;;;;;;5079803;28;20729;-70
2022/12/12 02:48:11;;;;;;;8.90;5.73;;;-1.50;99.90;;;;;;5100610;28;20237;-70
2022/12/12 02:50:41;;;;;;;10.53;6.87;;;-1.40;99.90;;;;;;5105214;28;20191;-69
2022/12/12 02:53:09;;;;;;;8.03;5.40;;;-1.40;99.90;;;;;;5101239;28;20225;-70
2022/12/12 02:55:35;;;;;;;7.93;5.57;;;-1.40;99.90;;;;;;5092122;28;20195;-69
2022/12/12 02:58:04;;;;;;;7.50;5.23;;;-1.40;99.90;;;;;;5091085;28;20229;-70
2022/12/12 03:00:37;;;;;;;8.10;5.93;;;-1.40;99.90;;;;;;5098571;28;20277;-69
2022/12/12 03:09:20;;;;;;;7.57;5.47;;;-1.40;99.90;;;;;;5090527;28;20189;-70
2022/12/12 03:12:01;;;;;;;8.43;5.60;;;-1.40;99.90;;;;;;5084034;28;20201;-70
2022/12/12 03:14:37;;;;;;;8.77;5.83;;;-1.40;99.90;;;;;;5091268;28;20295;-69
2022/12/12 03:17:10;;;;;;;10.47;5.67;;;-1.20;99.90;;;;;;5099993;28;20308;-70
2022/12/12 03:19:43;;;;;;;9.80;6.00;;;-1.30;99.90;;;;;;5097744;28;20274;-69
2022/12/12 03:22:14;;;;;;;11.33;6.90;;;-1.30;99.90;;;;;;5097671;28;20181;-68
2022/12/12 03:24:48;;;;;;;9.47;5.80;;;-1.40;99.90;;;;;;5103371;28;20239;-69
2022/12/12 03:27:23;;;;;;;14.23;6.63;;;-1.30;99.90;;;;;;5097226;28;20236;-68
2022/12/12 03:29:55;;;;;;;9.63;6.47;;;-1.40;99.90;;;;;;5098082;28;20205;-70
2022/12/12 03:32:26;;;;;;;10.70;6.93;;;-1.40;99.90;;;;;;5092387;28;20205;-70
2022/12/12 03:34:59;;;;;;;8.60;5.80;;;-1.40;99.90;;;;;;5104052;28;20188;-69
2022/12/12 03:37:30;;;;;;;8.23;5.80;;;-1.40;99.90;;;;;;5093585;28;20264;-69
2022/12/12 03:40:01;;;;;;;11.37;6.13;;;-1.40;99.90;;;;;;5099820;28;20221;-69
2022/12/12 03:42:34;;;;;;;10.50;6.43;;;-1.40;99.90;;;;;;5100783;28;20192;-69
2022/12/12 03:45:06;;;;;;;9.47;6.93;;;-1.40;99.90;;;;;;5090396;28;20202;-69
2022/12/12 03:47:41;;;;;;;10.47;6.40;;;-1.40;99.90;;;;;;5086671;28;20259;-68
2022/12/12 03:50:14;;;;;;;8.40;6.50;;;-1.40;99.90;;;;;;5101873;28;20335;-69
2022/12/12 03:52:45;;;;;;;9.33;6.30;;;-1.40;99.90;;;;;;5104263;28;20213;-69
2022/12/12 03:55:14;;;;;;;9.93;6.43;;;-1.40;99.90;;;;;;5089393;28;20246;-69
2022/12/12 03:57:46;;;;;;;9.90;6.07;;;-1.40;99.90;;;;;;5104175;28;20245;-69
2022/12/12 04:00:15;;;;;;;9.57;6.47;;;-1.40;99.90;;;;;;5097211;28;21376;-69
2022/12/12 04:02:50;;;;;;;8.77;6.47;;;-1.40;99.90;;;;;;5105109;28;20221;-69
2022/12/12 04:05:23;;;;;;;11.13;7.17;;;-1.40;99.90;;;;;;5102527;28;20184;-69
2022/12/12 04:07:57;;;;;;;9.93;6.13;;;-1.40;99.90;;;;;;5095120;28;20228;-69
2022/12/12 04:13:21;;;;;;;10.67;6.00;;;-1.40;99.90;;;;;;5088191;28;20211;-69
2022/12/12 04:16:03;;;;;;;10.30;6.23;;;-1.30;99.90;;;;;;5094733;28;20213;-69
2022/12/12 04:18:36;;;;;;;8.93;5.93;;;-1.30;99.90;;;;;;5092782;28;20273;-69
2022/12/12 04:24:18;;;;;;;9.87;6.37;;;-1.40;99.90;;;;;;5094802;28;20239;-69
2022/12/12 04:26:49;;;;;;;11.67;7.37;;;-1.40;99.90;;;;;;5089657;28;20262;-69
2022/12/12 04:29:37;;;;;;;9.20;6.40;;;-1.30;99.90;;;;;;5092384;28;20197;-69
2022/12/12 04:32:13;;;;;;;8.27;5.90;;;-1.30;99.90;;;;;;5105060;28;20188;-68
2022/12/12 04:34:45;;;;;;;13.10;6.77;;;-1.30;99.90;;;;;;5094632;28;20258;-69
2022/12/12 04:37:16;;;;;;;9.83;6.77;;;-1.30;99.90;;;;;;5078157;28;20211;-70
2022/12/12 04:39:46;;;;;;;10.80;7.07;;;-1.30;99.90;;;;;;5082346;28;20197;-70
2022/12/12 04:42:17;;;;;;;9.00;6.13;;;-1.30;99.90;;;;;;5077325;28;20202;-69
2022/12/12 04:44:46;;;;;;;11.40;6.83;;;-1.30;99.90;;;;;;5068512;28;20284;-69
2022/12/12 04:47:15;;;;;;;10.07;6.17;;;-1.20;99.90;;;;;;5078832;28;20224;-69
2022/12/12 04:49:45;;;;;;;9.47;5.97;;;-1.20;99.90;;;;;;5077953;28;20272;-69
2022/12/12 04:52:17;;;;;;;9.40;6.13;;;-1.20;99.90;;;;;;5070290;28;20389;-69
2022/12/12 04:54:49;;;;;;;9.13;6.30;;;-1.20;99.90;;;;;;5076330;28;20284;-69
2022/12/12 04:57:21;;;;;;;9.37;6.00;;;-1.20;99.90;;;;;;5075533;28;20219;-70
2022/12/12 04:59:49;;;;;;;7.27;5.87;;;-1.10;99.90;;;;;;5066089;28;20312;-69
2022/12/12 05:02:24;;;;;;;9.87;5.80;;;-1.10;99.90;;;;;;5086985;28;20313;-69
2022/12/12 05:04:58;;;;;;;7.80;5.57;;;-1.10;99.90;;;;;;5078056;28;20566;-69
2022/12/12 05:07:33;;;;;;;7.80;5.13;;;-1.00;99.90;;;;;;5083445;28;20215;-70
2022/12/12 05:10:00;;;;;;;8.47;5.83;;;-1.00;99.90;;;;;;5072306;28;20215;-70
2022/12/12 05:12:27;;;;;;;8.70;5.63;;;-1.00;99.90;;;;;;5072512;28;20663;-71
2022/12/12 05:14:54;;;;;;;9.73;5.80;;;-1.00;99.90;;;;;;5072492;28;20212;-69
2022/12/12 05:17:26;;;;;;;9.17;6.10;;;-1.10;99.90;;;;;;5076491;28;20252;-69
2022/12/12 05:19:53;;;;;;;9.00;6.07;;;-1.00;99.90;;;;;;5060160;28;20201;-70
2022/12/12 05:22:20;;;;;;;10.00;5.37;;;-1.00;99.90;;;;;;5058961;28;20220;-70
2022/12/12 05:24:48;;;;;;;9.27;5.63;;;-1.00;99.90;;;;;;5069809;28;20207;-71
2022/12/12 05:27:15;;;;;;;8.83;5.47;;;-1.00;99.90;;;;;;5068152;28;20211;-72
2022/12/12 05:29:42;;;;;;;10.10;6.40;;;-1.00;99.90;;;;;;5070852;28;20208;-71
2022/12/12 05:32:08;;;;;;;8.97;5.83;;;-1.00;99.90;;;;;;5066418;28;20200;-70
2022/12/12 05:34:35;;;;;;;7.87;6.17;;;-0.90;99.90;;;;;;5070223;28;20296;-70
2022/12/12 05:37:02;;;;;;;9.70;6.13;;;-0.90;99.90;;;;;;5071644;28;20209;-74
2022/12/12 05:39:29;;;;;;;11.63;6.90;;;-0.90;99.90;;;;;;5073946;28;20204;-73
2022/12/12 05:41:57;;;;;;;9.03;6.37;;;-0.80;99.90;;;;;;5082695;28;20227;-70
2022/12/12 05:44:24;;;;;;;10.53;6.97;;;-0.80;99.90;;;;;;5062120;28;20217;-69
2022/12/12 05:46:51;;;;;;;9.77;6.30;;;-0.80;99.90;;;;;;5063796;28;20202;-69
2022/12/12 05:49:18;;;;;;;9.63;6.50;;;-0.80;99.90;;;;;;5071915;28;20228;-73
2022/12/12 05:51:45;;;;;;;11.13;7.23;;;-0.80;99.90;;;;;;5068370;28;20667;-76
2022/12/12 05:54:12;;;;;;;12.30;7.00;;;-0.70;99.90;;;;;;5083668;28;20303;-74
2022/12/12 05:56:39;;;;;;;12.80;7.50;;;-0.70;99.90;;;;;;5069724;28;20201;-74
2022/12/12 05:59:07;;;;;;;12.37;7.47;;;-0.70;99.90;;;;;;5064823;28;20229;-73
2022/12/12 06:01:34;;;;;;;10.60;7.20;;;-0.70;99.90;;;;;;5068382;28;20220;-72
2022/12/12 06:04:01;;;;;;;12.90;7.50;;;-0.60;99.90;;;;;;5077527;28;20243;-75
2022/12/12 06:06:28;;;;;;;14.27;8.00;;;-0.70;99.90;;;;;;5072422;28;20373;-76
2022/12/12 06:08:55;;;;;;;12.13;7.67;;;-0.60;99.90;;;;;;5059811;28;20639;-73
2022/12/12 06:11:23;;;;;;;10.93;7.73;;;-0.60;99.90;;;;;;5068692;28;20205;-74
2022/12/12 06:13:49;;;;;;;12.97;8.13;;;-0.60;99.90;;;;;;5072956;28;20206;-74
2022/12/12 06:16:19;;;;;;;12.43;8.10;;;-0.60;99.90;;;;;;5071976;28;20209;-73
2022/12/12 06:18:50;;;;;;;14.70;8.57;;;-0.50;99.90;;;;;;5071623;28;20236;-70
2022/12/12 06:21:17;;;;;;;11.80;8.17;;;-0.60;99.90;;;;;;5067979;28;20304;-73
2022/12/12 06:23:44;;;;;;;11.90;8.70;;;-0.50;99.90;;;;;;5070531;28;20208;-71
2022/12/12 06:26:13;;;;;;;12.27;8.27;;;-0.50;99.90;;;;;;5060311;28;20301;-71
2022/12/12 06:28:41;;;;;;;12.97;8.27;;;-0.40;99.90;;;;;;5065000;28;20232;-73
2022/12/12 06:31:08;;;;;;;15.10;8.87;;;-0.40;99.90;;;;;;5078314;28;20212;-71
2022/12/12 06:33:37;;;;;;;11.57;7.83;;;-0.40;99.90;;;;;;5076297;28;20272;-72
2022/12/12 06:36:07;;;;;;;14.23;7.53;;;-0.40;99.90;;;;;;5071628;28;20205;-73
2022/12/12 06:38:35;;;;;;;12.50;8.33;;;-0.40;99.90;;;;;;5071995;28;20216;-74
2022/12/12 06:41:06;;;;;;;14.88;9.15;;;-0.30;99.90;;;;;;5068047;28;20476;-74
2022/12/12 06:43:34;;;;;;;12.87;8.60;;;-0.30;99.90;;;;;;5063254;28;20216;-72
2022/12/12 06:46:02;;;;;;;15.13;8.63;;;-0.30;99.90;;;;;;5064318;28;20208;-75
2022/12/12 06:48:29;;;;;;;13.00;8.20;;;-0.30;99.90;;;;;;5071231;28;20220;-72
2022/12/12 06:50:58;;;;;;;15.10;8.97;;;-0.30;99.90;;;;;;5061939;28;20712;-71
2022/12/12 06:53:25;;;;;;;17.47;8.40;;;-0.30;99.90;;;;;;5065772;28;20206;-72
2022/12/12 06:55:52;;;;;;;18.50;9.73;;;-0.30;99.90;;;;;;5062227;28;20209;-74
2022/12/12 06:58:19;;;;;;;12.57;8.47;;;-0.20;99.90;;;;;;5067605;28;20715;-74
2022/12/12 07:00:52;;;;;;;15.17;9.47;;;-0.20;99.90;;;;;;5069567;28;20300;-72
2022/12/12 07:03:20;;;;;;;14.13;8.87;;;-0.20;99.90;;;;;;5072958;28;20193;-70
2022/12/12 07:05:47;;;;;;;15.07;8.63;;;-0.10;99.90;;;;;;5071447;28;20205;-71
2022/12/12 07:08:15;;;;;;;15.10;9.47;;;-0.10;99.90;;;;;;5068155;28;20291;-75
2022/12/12 07:10:43;;;;;;;15.53;9.37;;;-0.10;99.90;;;;;;5066614;28;20205;-76
2022/12/12 07:13:10;;;;;;;16.50;9.13;;;-0.10;99.90;;;;;;5072052;28;20240;-75
2022/12/12 07:15:43;;;;;;;15.07;8.83;;;0.00;99.90;;;;;;5081965;28;20250;-73
2022/12/12 07:18:09;;;;;;;12.57;8.33;;;0.00;99.90;;;;;;5085244;28;20215;-74
2022/12/12 07:20:39;;;;;;;14.73;8.77;;;0.00;99.90;;;;;;5067293;28;20205;-73
2022/12/12 07:23:05;;;;;;;16.23;9.50;;;0.10;99.90;;;;;;5070234;28;20760;-71
2022/12/12 07:25:34;;;;;;;16.33;9.37;;;0.10;99.90;;;;;;5080942;28;20246;-72
2022/12/12 07:28:00;;;;;;;13.47;9.27;;;0.10;99.90;;;;;;5072570;28;20201;-68
2022/12/12 07:30:27;;;;;;;13.40;9.17;;;0.10;99.90;;;;;;5068042;28;20300;-72
2022/12/12 07:32:54;;;;;;;13.07;9.00;;;0.20;99.90;;;;;;5082777;28;20298;-71
2022/12/12 07:35:21;;;;;;;11.87;9.17;;;0.20;99.90;;;;;;5063144;28;20733;-72
2022/12/12 07:37:48;;;;;;;11.70;8.17;;;0.20;99.90;;;;;;5067936;28;20250;-74
2022/12/12 07:40:15;;;;;;;15.03;8.67;;;0.20;99.90;;;;;;5066641;28;20243;-72
2022/12/12 07:42:44;;;;;;;12.07;8.37;;;0.30;99.90;;;;;;5075220;28;20207;-70
2022/12/12 07:45:11;;;;;;;11.67;8.40;;;0.20;99.90;;;;;;5065549;28;20201;-75
2022/12/12 07:47:38;;;;;;;13.13;9.03;;;0.30;99.90;;;;;;5071553;28;20247;-75
2022/12/12 07:50:05;;;;;;;11.53;8.63;;;0.30;99.90;;;;;;5068113;28;20213;-71
2022/12/12 07:52:32;;;;;;;16.03;8.90;;;0.30;99.90;;;;;;5065758;28;20638;-71
2022/12/12 07:55:00;;;;;;;15.63;9.07;;;0.30;99.90;;;;;;5058808;28;20201;-73
2022/12/12 07:57:26;;;;;;;14.30;7.97;;;0.30;99.90;;;;;;5067842;28;20664;-71
2022/12/12 07:59:55;;;;;;;15.33;8.60;;;0.30;99.90;;;;;;5062599;28;20325;-71
2022/12/12 08:02:21;;;;;;;13.90;8.60;;;0.40;99.90;;;;;;5066510;28;20205;-75
2022/12/12 08:04:48;;;;;;;12.87;8.83;;;0.40;99.90;;;;;;5066163;28;20299;-72
2022/12/12 08:07:15;;;;;;;14.13;7.73;;;0.40;99.90;;;;;;5067423;28;20339;-73
2022/12/12 08:09:42;;;;;;;14.20;8.57;;;0.40;99.90;;;;;;5060838;28;20907;-73
2022/12/12 08:12:09;;;;;;;13.97;8.40;;;0.50;99.90;;;;;;5062288;28;20287;-71
2022/12/12 08:14:37;;;;;;;13.43;8.67;;;0.50;99.90;;;;;;5066258;28;20308;-73
2022/12/12 08:17:05;;;;;;;12.93;9.23;;;0.50;99.90;;;;;;5065989;28;20241;-73
2022/12/12 08:19:32;;;;;;;13.57;8.47;;;0.60;99.90;;;;;;5062570;28;20226;-72
2022/12/12 08:21:59;;;;;;;11.00;8.20;;;0.60;99.90;;;;;;5064321;28;20755;-70
2022/12/12 08:24:27;;;;;;;12.77;9.37;;;0.60;99.90;;;;;;5070939;28;20212;-72
2022/12/12 08:26:54;;;;;;;11.83;8.57;;;0.50;99.90;;;;;;5062736;28;20209;-72
2022/12/12 08:29:21;;;;;;;14.93;9.83;;;0.70;99.90;;;;;;5070294;28;20216;-72
2022/12/12 08:31:48;;;;;;;12.37;9.20;;;0.60;99.90;;;;;;5070593;28;20205;-70
2022/12/12 08:34:17;;;;;;;11.60;7.93;;;0.60;99.90;;;;;;5065702;28;20209;-71
2022/12/12 08:36:44;;;;;;;13.33;8.40;;;0.70;99.90;;;;;;5074661;28;20248;-73
2022/12/12 08:39:14;;;;;;;15.03;9.43;;;0.70;99.90;;;;;;5087530;28;20221;-71
2022/12/12 08:41:43;;;;;;;18.33;9.93;;;0.80;99.90;;;;;;5092876;28;20200;-75
2022/12/12 08:44:12;;;;;;;16.93;8.80;;;0.80;99.90;;;;;;5086738;28;20660;-73
2022/12/12 08:46:40;;;;;;;13.50;8.50;;;0.80;99.90;;;;;;5092888;28;20201;-74
2022/12/12 08:49:07;;;;;;;14.27;9.00;;;0.90;99.90;;;;;;5091353;28;20241;-76
2022/12/12 08:51:38;;;;;;;11.20;7.20;;;0.90;99.90;;;;;;5150193;22;20189;-71
2022/12/12 08:54:05;;;;;;;8.83;6.87;;;1.00;99.90;;;;;;5050957;28;20259;-74
2022/12/12 08:56:31;;;;;;;9.87;7.03;;;1.00;99.90;;;;;;5040084;28;20301;-70
2022/12/12 08:58:59;;;;;;;11.47;7.27;;;1.00;99.90;;;;;;5054213;28;20313;-73
2022/12/12 09:01:27;;;;;;;9.63;6.47;;;1.10;99.90;;;;;;5051820;28;20251;-70
2022/12/12 09:03:56;;;;;;;8.07;6.57;;;1.10;99.90;;;;;;5046494;28;20262;-69
2022/12/12 09:06:24;;;;;;;10.63;6.30;;;1.10;99.90;;;;;;5055577;28;20236;-70
2022/12/12 09:08:54;;;;;;;8.23;6.13;;;1.20;99.90;;;;;;5068394;28;20237;-70
2022/12/12 09:11:21;;;;;;;7.80;5.47;;;1.30;99.90;;;;;;5071355;28;20194;-69
2022/12/12 09:13:48;;;;;;;14.03;5.50;;;1.30;99.90;;;;;;5069730;28;20225;-70
2022/12/12 09:16:15;;;;;;;10.20;4.67;;;1.30;99.90;;;;;;5071549;28;20228;-70
2022/12/12 09:18:42;;;;;;;7.23;5.43;;;1.30;99.90;;;;;;5069300;28;20233;-73
2022/12/12 09:21:09;;;;;;;8.23;5.07;;;1.30;99.90;;;;;;5050725;28;20186;-71
2022/12/12 09:23:36;;;;;;;10.53;5.90;;;1.30;99.90;;;;;;5046427;28;20293;-70
2022/12/12 09:26:08;;;;;;;9.10;4.50;;;1.30;99.90;;;;;;5071700;28;20186;-70
2022/12/12 09:28:35;;;;;;;8.83;4.37;;;1.30;99.90;;;;;;5067206;28;20199;-72
2022/12/12 09:31:04;;;;;;;9.63;5.63;;;1.30;99.90;;;;;;5058897;28;20674;-74
2022/12/12 09:33:31;;;;;;;7.13;4.80;;;1.40;99.90;;;;;;5051999;28;20202;-73
2022/12/12 09:35:59;;;;;;;7.83;4.87;;;1.40;99.90;;;;;;5042423;28;20206;-73
2022/12/12 09:38:27;;;;;;;6.13;4.87;;;1.40;99.90;;;;;;5045014;28;20234;-77
2022/12/12 09:40:56;;;;;;;7.67;5.13;;;1.40;99.90;;;;;;5041595;28;20298;-79
2022/12/12 09:43:28;;;;;;;7.50;4.33;;;1.40;99.90;;;;;;5045904;28;20296;-75
2022/12/12 09:45:56;;;;;;;9.40;4.90;;;1.40;99.90;;;;;;5050450;28;20289;-73
2022/12/12 09:48:30;;;;;;;8.20;4.20;;;1.40;99.90;;;;;;5050192;28;20205;-73
2022/12/12 09:50:57;;;;;;;8.30;4.83;;;1.50;99.90;;;;;;5046806;28;20353;-73
2022/12/12 09:53:26;;;;;;;11.57;5.33;;;1.50;99.90;;;;;;5045891;28;20253;-72
2022/12/12 09:56:00;;;;;;;10.50;5.43;;;1.50;99.90;;;;;;5044621;28;20683;-69
2022/12/12 09:58:34;;;;;;;8.10;4.93;;;1.60;99.90;;;;;;5045071;28;20573;-70
2022/12/12 10:01:06;;;;;;;6.87;4.63;;;1.50;99.90;;;;;;5049186;28;20283;-70
2022/12/12 10:03:54;;;;;;;9.63;5.97;;;1.60;99.90;;;;;;5048204;28;20206;-70
2022/12/12 10:06:22;;;;;;;7.33;4.43;;;1.60;99.90;;;;;;5045119;28;20284;-73
2022/12/12 10:09:09;;;;;;;9.67;4.93;;;1.50;99.90;;;;;;5051201;28;20236;-73
2022/12/12 10:11:53;;;;;;;8.20;4.67;;;1.60;99.90;;;;;;5044193;28;20624;-74
2022/12/12 10:14:29;;;;;;;7.80;4.43;;;1.60;99.90;;;;;;5039293;28;20224;-74
2022/12/12 10:16:58;;;;;;;6.23;4.30;;;1.70;99.90;;;;;;5034065;28;20202;-74
2022/12/12 10:19:28;;;;;;;8.83;4.23;;;1.70;99.90;;;;;;5032716;28;20308;-73
2022/12/12 10:22:01;;;;;;;8.57;4.70;;;1.60;99.90;;;;;;5037527;28;20232;-78
2022/12/12 10:24:33;;;;;;;5.90;3.87;;;1.70;99.90;;;;;;5051263;28;20210;-75
2022/12/12 10:27:05;;;;;;;10.77;4.53;;;1.70;99.90;;;;;;5043196;28;20195;-73
2022/12/12 10:29:34;;;;;;;7.30;4.33;;;1.70;99.90;;;;;;5054941;28;20202;-73
2022/12/12 10:32:08;;;;;;;9.47;4.40;;;1.80;99.90;;;;;;5042608;28;20221;-75
2022/12/12 10:34:48;;;;;;;7.10;4.37;;;1.80;99.90;;;;;;5046162;28;20234;-74
2022/12/12 10:37:29;;;;;;;4.60;3.47;;;1.80;99.90;;;;;;5054345;28;20255;-77
2022/12/12 10:40:04;;;;;;;9.30;3.73;;;1.90;99.90;;;;;;5054981;28;20300;-72
2022/12/12 10:42:39;;;;;;;6.20;4.03;;;2.00;99.90;;;;;;5038811;28;20226;-74
2022/12/12 10:45:35;;;;;;;4.77;3.20;;;2.00;99.90;;;;;;5047096;28;20292;-76
2022/12/12 10:48:02;;;;;;;5.50;3.73;;;2.20;99.90;;;;;;5034144;28;20206;-74
2022/12/12 10:50:33;;;;;;;5.37;3.30;;;2.20;99.90;;;;;;5053471;28;20218;-77
2022/12/12 10:53:02;;;;;;;5.17;3.40;;;2.20;99.90;;;;;;5052953;28;20244;-72
2022/12/12 10:55:38;;;;;;;7.63;3.57;;;2.30;99.90;;;;;;5052796;28;20237;-76
2022/12/12 10:58:06;;;;;;;6.17;3.40;;;2.30;99.90;;;;;;5051162;28;20241;-77
2022/12/12 11:00:37;;;;;;;5.23;3.30;;;2.30;99.90;;;;;;5053940;28;20313;-77
2022/12/12 11:03:25;;;;;;;7.30;3.00;;;2.40;99.90;;;;;;5053214;28;20655;-76
2022/12/12 11:05:53;;;;;;;5.60;3.23;;;2.40;99.90;;;;;;5048813;28;20289;-73
2022/12/12 11:08:25;;;;;;;7.93;3.60;;;2.40;99.90;;;;;;5053908;28;20271;-75
2022/12/12 11:11:07;;;;;;;4.50;3.50;;;2.40;99.90;;;;;;5043288;28;20199;-76
2022/12/12 11:13:44;;;;;;;6.37;3.63;;;2.50;99.90;;;;;;5051351;28;20377;-76
2022/12/12 11:16:17;;;;;;;5.30;3.27;;;2.50;99.90;;;;;;5049733;28;20194;-75
2022/12/12 11:18:58;;;;;;;7.00;3.20;;;2.50;99.90;;;;;;5052896;28;20294;-78
2022/12/12 11:21:25;;;;;;;4.83;3.40;;;2.40;99.90;;;;;;5043348;28;20309;-74
2022/12/12 11:23:55;;;;;;;3.20;2.90;;;2.40;99.90;;;;;;5043242;28;20282;-78
2022/12/12 11:26:23;;;;;;;4.10;3.33;;;2.30;99.90;;;;;;5049693;28;20296;-74
2022/12/12 11:28:56;;;;;;;4.87;3.27;;;2.30;99.90;;;;;;5047801;28;20630;-76
2022/12/12 11:31:30;;;;;;;6.80;3.93;;;2.30;99.90;;;;;;5049998;28;20202;-75
2022/12/12 11:34:00;;;;;;;4.30;2.93;;;2.40;99.90;;;;;;5048569;28;20694;-74
2022/12/12 11:36:33;;;;;;;5.63;3.30;;;2.30;99.90;;;;;;5047512;28;20728;-76
2022/12/12 11:39:01;;;;;;;8.37;4.43;;;2.20;99.90;;;;;;5049128;28;20543;-74
2022/12/12 11:41:28;;;;;;;6.63;3.30;;;2.20;99.90;;;;;;5040678;28;20211;-74
2022/12/12 11:43:59;;;;;;;4.77;3.40;;;2.20;99.90;;;;;;5047555;28;20205;-73
2022/12/12 11:46:30;;;;;;;7.60;3.37;;;2.20;99.90;;;;;;5052035;28;20237;-72
2022/12/12 11:49:00;;;;;;;6.20;3.80;;;2.20;99.90;;;;;;5051299;28;20255;-75
2022/12/12 11:51:37;;;;;;;7.57;3.83;;;2.20;99.90;;;;;;5052122;28;20202;-73
2022/12/12 11:54:11;;;;;;;6.37;3.87;;;2.20;99.90;;;;;;5053810;28;20206;-70
2022/12/12 11:56:46;;;;;;;5.57;3.87;;;2.30;99.90;;;;;;5052258;28;20219;-73
2022/12/12 11:59:31;;;;;;;6.63;4.23;;;2.20;99.90;;;;;;5044309;28;20224;-74
2022/12/12 12:02:15;;;;;;;7.07;4.30;;;2.20;99.90;;;;;;5047443;28;20220;-73
2022/12/12 12:04:55;;;;;;;6.77;4.00;;;2.20;99.90;;;;;;5053647;28;20261;-79
2022/12/12 12:07:45;;;;;;;7.30;4.23;;;2.30;99.90;;;;;;5049994;28;20279;-74
2022/12/12 12:10:23;;;;;;;8.20;4.50;;;2.20;99.90;;;;;;5047717;28;20655;-75
2022/12/12 12:12:57;;;;;;;8.10;4.70;;;2.30;99.90;;;;;;5040528;28;20237;-77
2022/12/12 12:15:35;;;;;;;8.90;5.03;;;2.20;99.90;;;;;;5043226;28;20752;-76
2022/12/12 12:18:30;;;;;;;6.33;4.60;;;2.20;99.90;;;;;;5037114;28;20626;-74
2022/12/12 12:21:25;;;;;;;7.30;4.80;;;2.20;99.90;;;;;;5045237;28;20290;-72
2022/12/12 12:24:15;;;;;;;10.00;4.47;;;2.20;99.90;;;;;;5044510;28;20323;-75
2022/12/12 12:26:53;;;;;;;12.03;4.30;;;2.20;99.90;;;;;;5042205;28;20207;-73
2022/12/12 12:29:49;;;;;;;8.43;4.10;;;2.20;99.90;;;;;;5051432;28;20214;-73
2022/12/12 12:32:26;;;;;;;8.87;5.17;;;2.10;99.90;;;;;;5044912;28;20201;-70
2022/12/12 12:35:06;;;;;;;10.47;4.87;;;2.10;99.90;;;;;;5054161;28;20213;-73
2022/12/12 12:37:44;;;;;;;9.70;5.50;;;2.20;99.90;;;;;;5051121;28;20197;-75
2022/12/12 12:40:31;;;;;;;7.17;4.93;;;2.10;99.90;;;;;;5054986;28;20919;-76
2022/12/12 12:43:13;;;;;;;9.77;5.07;;;2.10;99.90;;;;;;5034556;28;20202;-77
2022/12/12 12:45:45;;;;;;;8.47;5.10;;;2.20;99.90;;;;;;5044924;28;20210;-74
2022/12/12 12:48:18;;;;;;;8.27;5.53;;;2.10;99.90;;;;;;5046594;28;20205;-70
2022/12/12 12:50:51;;;;;;;9.80;5.57;;;2.10;99.90;;;;;;5045265;28;20217;-74
2022/12/12 12:53:28;;;;;;;9.37;5.40;;;2.10;99.90;;;;;;5047022;28;20430;-79
2022/12/12 12:55:59;;;;;;;10.47;5.97;;;2.10;99.90;;;;;;5044884;28;20228;-74
2022/12/12 12:58:31;;;;;;;10.00;5.70;;;2.10;99.90;;;;;;5049806;28;20738;-79
2022/12/12 13:01:02;;;;;;;11.50;6.30;;;2.00;99.90;;;;;;5047037;28;20234;-77
2022/12/12 13:03:36;;;;;;;10.23;5.90;;;2.00;99.90;;;;;;5051121;28;20225;-78
2022/12/12 13:06:12;;;;;;;9.20;6.47;;;1.90;99.90;;;;;;5057251;28;20202;-77
2022/12/12 13:08:49;;;;;;;9.47;5.67;;;1.90;99.90;;;;;;5049579;28;20229;-81
2022/12/12 13:11:28;;;;;;;9.63;6.03;;;1.80;99.90;;;;;;5047685;28;20667;-70
2022/12/12 13:13:59;;;;;;;7.93;5.70;;;1.80;99.90;;;;;;5053477;28;20289;-80
2022/12/12 13:16:31;;;;;;;8.30;5.30;;;1.80;99.90;;;;;;5047524;28;20248;-76
2022/12/12 13:19:05;;;;;;;11.67;6.23;;;1.80;99.90;;;;;;5047154;28;20198;-79